Time;durP1;ratioP1;P1;durP2;ratioP2;P2;SDS_P1;SDS_P2;PMS_P1;PMS_P2;Temp;Humidity;BMP_temperature;BMP_pressure;BME280_temperature;BME280_humidity;BME280_pressure;Samples;Min_cycle;Max_cycle;Signal;HPM_P1;HPM_P2
2024/02/03 00:00:58;;;;;;;74.60;38.63;;;8.70;99.90;;;;;;792162;181;26462;-79
2024/02/03 00:03:24;;;;;;;63.63;32.57;;;8.70;99.90;;;;;;789321;181;26948;-80
2024/02/03 00:05:51;;;;;;;51.73;28.50;;;8.70;99.90;;;;;;789616;181;26445;-79
2024/02/03 00:08:18;;;;;;;55.63;29.30;;;8.70;99.90;;;;;;792942;181;26983;-79
2024/02/03 00:10:44;;;;;;;74.70;35.43;;;8.60;99.90;;;;;;793027;180;26457;-78
2024/02/03 00:13:11;;;;;;;79.27;37.07;;;8.60;99.90;;;;;;793625;181;26589;-79
2024/02/03 00:15:37;;;;;;;109.90;48.63;;;8.70;99.90;;;;;;793523;181;26441;-80
2024/02/03 00:18:04;;;;;;;80.30;40.57;;;8.70;99.90;;;;;;793628;178;26421;-81
2024/02/03 00:20:31;;;;;;;99.63;46.50;;;8.60;99.90;;;;;;791058;181;26429;-80
2024/02/03 00:22:57;;;;;;;105.03;46.37;;;8.60;99.90;;;;;;793671;181;26475;-81
2024/02/03 00:25:24;;;;;;;74.63;37.57;;;8.60;99.90;;;;;;795904;178;26418;-81
2024/02/03 00:27:51;;;;;;;67.67;32.97;;;8.70;99.90;;;;;;793094;180;26410;-80
2024/02/03 00:30:17;;;;;;;125.83;53.00;;;8.70;99.90;;;;;;794892;174;26449;-79
2024/02/03 00:32:44;;;;;;;257.83;102.67;;;8.70;99.90;;;;;;791529;181;26467;-79
2024/02/03 00:35:11;;;;;;;109.10;47.33;;;8.70;99.90;;;;;;789769;181;26418;-76
2024/02/03 00:37:38;;;;;;;126.50;54.87;;;8.70;99.90;;;;;;790719;181;26442;-79
2024/02/03 00:40:05;;;;;;;63.00;29.93;;;8.70;99.90;;;;;;794055;181;26455;-80
2024/02/03 00:42:31;;;;;;;51.90;28.17;;;8.70;99.90;;;;;;793894;181;26428;-80
2024/02/03 00:44:58;;;;;;;50.30;26.57;;;8.60;99.90;;;;;;792586;177;26453;-80
2024/02/03 00:47:25;;;;;;;56.70;28.93;;;8.70;99.90;;;;;;794149;179;26436;-80
2024/02/03 00:49:51;;;;;;;65.17;32.40;;;8.70;99.90;;;;;;793973;180;26442;-80
2024/02/03 00:52:18;;;;;;;55.63;29.43;;;8.70;99.90;;;;;;792934;181;26445;-80
2024/02/03 00:54:45;;;;;;;59.77;30.97;;;8.70;99.90;;;;;;793868;180;26453;-79
2024/02/03 00:57:11;;;;;;;114.33;49.80;;;8.70;99.90;;;;;;790859;181;27011;-80
2024/02/03 00:59:38;;;;;;;198.83;77.63;;;8.70;99.90;;;;;;791938;181;26445;-80
2024/02/03 01:02:06;;;;;;;90.93;42.40;;;8.80;99.90;;;;;;791302;181;28072;-81
2024/02/03 01:04:31;;;;;;;68.43;33.60;;;8.70;99.90;;;;;;793264;181;26425;-79
2024/02/03 01:06:59;;;;;;;73.90;37.77;;;8.80;99.90;;;;;;793572;181;26436;-79
2024/02/03 01:09:24;;;;;;;108.97;48.37;;;8.80;99.90;;;;;;792907;180;26477;-79
2024/02/03 01:11:51;;;;;;;95.03;41.70;;;8.80;99.90;;;;;;793706;180;26417;-81
2024/02/03 01:14:18;;;;;;;159.73;66.60;;;8.90;99.90;;;;;;792970;174;26442;-81
2024/02/03 01:16:44;;;;;;;106.43;44.17;;;8.90;99.90;;;;;;793942;181;26421;-80
2024/02/03 01:19:11;;;;;;;65.03;32.73;;;8.90;99.90;;;;;;794393;181;26436;-79
2024/02/03 01:21:38;;;;;;;90.13;41.23;;;8.90;99.90;;;;;;792019;178;29966;-79
2024/02/03 01:24:04;;;;;;;150.80;62.23;;;8.90;99.90;;;;;;794365;174;26408;-80
2024/02/03 01:26:31;;;;;;;126.93;54.83;;;8.90;99.90;;;;;;792844;181;27005;-81
2024/02/03 01:28:58;;;;;;;60.20;31.07;;;8.90;99.90;;;;;;795145;179;26461;-81
2024/02/03 01:31:24;;;;;;;46.07;26.13;;;8.90;99.90;;;;;;796390;181;26425;-76
2024/02/03 01:33:51;;;;;;;69.73;37.17;;;8.90;99.90;;;;;;793685;181;26979;-78
2024/02/03 01:36:17;;;;;;;45.73;23.63;;;8.90;99.90;;;;;;794680;180;26428;-80
2024/02/03 01:38:48;;;;;;;42.03;22.83;;;8.90;99.90;;;;;;793737;180;26428;-79
2024/02/03 01:41:11;;;;;;;50.37;26.90;;;8.90;99.90;;;;;;795455;174;26409;-80
2024/02/03 01:43:37;;;;;;;46.43;27.00;;;8.80;99.90;;;;;;795928;174;26409;-78
2024/02/03 01:46:04;;;;;;;60.13;33.73;;;8.80;99.90;;;;;;792463;174;26462;-82
2024/02/03 01:48:33;;;;;;;44.67;25.53;;;8.80;99.90;;;;;;790993;179;26467;-79
2024/02/03 01:50:57;;;;;;;47.60;26.00;;;8.80;99.90;;;;;;792718;181;26445;-80
2024/02/03 01:53:24;;;;;;;41.40;23.80;;;8.80;99.90;;;;;;793811;181;26419;-79
2024/02/03 01:55:51;;;;;;;41.97;23.80;;;8.80;99.90;;;;;;793530;181;26445;-76
2024/02/03 01:58:17;;;;;;;42.53;22.37;;;8.80;99.90;;;;;;793780;181;26424;-80
2024/02/03 02:00:44;;;;;;;49.80;25.30;;;8.80;99.90;;;;;;794187;181;26425;-80
2024/02/03 02:03:11;;;;;;;52.77;27.27;;;8.80;99.90;;;;;;793308;179;26426;-79
2024/02/03 02:05:38;;;;;;;46.17;25.00;;;8.80;99.90;;;;;;792868;181;26445;-80
2024/02/03 02:08:05;;;;;;;40.73;22.63;;;8.80;99.90;;;;;;790178;181;26443;-80
2024/02/03 02:10:31;;;;;;;45.27;24.07;;;8.70;99.90;;;;;;793262;181;26459;-81
2024/02/03 02:12:58;;;;;;;39.90;22.17;;;8.80;99.90;;;;;;789266;181;26448;-81
2024/02/03 02:15:25;;;;;;;37.63;20.93;;;8.80;99.90;;;;;;793051;178;26413;-82
2024/02/03 02:18:01;;;;;;;97.50;41.10;;;8.80;99.90;;;;;;794582;180;26429;-82
2024/02/03 02:20:27;;;;;;;95.60;40.53;;;8.80;99.90;;;;;;794676;178;26444;-80
2024/02/03 02:22:54;;;;;;;183.30;65.30;;;8.80;99.90;;;;;;793753;181;26425;-79
2024/02/03 02:25:20;;;;;;;122.70;47.83;;;8.90;99.90;;;;;;790812;181;26419;-80
2024/02/03 02:27:47;;;;;;;48.23;23.07;;;8.90;99.90;;;;;;792464;181;26962;-79
2024/02/03 02:30:14;;;;;;;37.43;21.47;;;8.80;99.90;;;;;;792039;181;26451;-79
2024/02/03 02:32:41;;;;;;;35.90;20.63;;;8.90;99.90;;;;;;792903;177;26441;-79
2024/02/03 02:35:07;;;;;;;31.77;17.77;;;8.90;99.90;;;;;;793144;178;26429;-80
2024/02/03 02:37:34;;;;;;;32.50;18.03;;;8.90;99.90;;;;;;791509;180;26430;-76
2024/02/03 02:40:01;;;;;;;28.47;17.70;;;8.90;99.90;;;;;;792318;179;26978;-80
2024/02/03 02:42:27;;;;;;;36.43;19.87;;;8.90;99.90;;;;;;796329;179;26448;-80
2024/02/03 02:44:54;;;;;;;35.10;18.90;;;8.90;99.90;;;;;;794086;180;26417;-78
2024/02/03 02:47:21;;;;;;;32.83;18.93;;;8.90;99.90;;;;;;789561;181;26425;-79
2024/02/03 02:49:47;;;;;;;31.17;19.07;;;8.90;99.90;;;;;;793856;181;26437;-79
2024/02/03 02:52:15;;;;;;;28.70;17.27;;;8.90;99.90;;;;;;793087;181;26557;-80
2024/02/03 02:54:41;;;;;;;32.50;18.00;;;8.90;99.90;;;;;;794176;181;26426;-80
2024/02/03 02:57:09;;;;;;;43.27;20.67;;;8.90;99.90;;;;;;791544;181;26462;-80
2024/02/03 02:59:34;;;;;;;40.67;20.83;;;8.90;99.90;;;;;;793844;181;26444;-80
2024/02/03 03:02:01;;;;;;;32.77;17.63;;;8.90;99.90;;;;;;793691;180;26420;-77
2024/02/03 03:04:28;;;;;;;59.20;28.53;;;8.90;99.90;;;;;;794109;181;26416;-80
2024/02/03 03:06:54;;;;;;;41.73;21.33;;;8.90;99.90;;;;;;793969;181;26461;-80
2024/02/03 03:09:21;;;;;;;36.93;19.33;;;8.90;99.90;;;;;;793553;181;26441;-80
2024/02/03 03:11:47;;;;;;;37.93;18.87;;;8.90;99.90;;;;;;794079;181;26407;-77
2024/02/03 03:14:14;;;;;;;59.63;28.30;;;8.90;99.90;;;;;;791542;181;26450;-79
2024/02/03 03:16:41;;;;;;;32.87;17.97;;;8.90;99.90;;;;;;793326;181;26963;-80
2024/02/03 03:19:07;;;;;;;38.93;20.40;;;8.90;99.90;;;;;;791915;181;26445;-80
2024/02/03 03:21:34;;;;;;;29.63;15.67;;;9.00;99.90;;;;;;793066;180;26420;-77
2024/02/03 03:24:00;;;;;;;36.03;18.13;;;8.90;99.90;;;;;;792895;180;26426;-79
2024/02/03 03:26:27;;;;;;;30.27;16.70;;;9.00;99.90;;;;;;792454;181;26449;-79
2024/02/03 03:28:54;;;;;;;25.33;14.50;;;8.90;99.90;;;;;;791041;181;26467;-80
2024/02/03 03:31:20;;;;;;;26.97;14.43;;;8.90;99.90;;;;;;791349;181;26436;-78
2024/02/03 03:33:47;;;;;;;26.93;14.53;;;8.90;99.90;;;;;;792945;181;26410;-78
2024/02/03 03:36:14;;;;;;;26.03;15.00;;;9.00;99.90;;;;;;791621;181;26462;-78
2024/02/03 03:38:43;;;;;;;27.93;16.10;;;9.00;99.90;;;;;;792456;180;26457;-79
2024/02/03 03:41:10;;;;;;;28.93;15.20;;;9.00;99.90;;;;;;792713;181;26408;-80
2024/02/03 03:43:37;;;;;;;26.13;14.43;;;9.00;99.90;;;;;;793160;181;26426;-79
2024/02/03 03:46:04;;;;;;;31.13;17.30;;;9.00;99.90;;;;;;793742;180;26445;-79
2024/02/03 03:48:32;;;;;;;33.50;17.47;;;9.00;99.90;;;;;;793174;181;26596;-76
2024/02/03 03:50:57;;;;;;;31.40;17.07;;;9.00;99.90;;;;;;791656;181;26419;-80
2024/02/03 03:53:24;;;;;;;34.47;16.07;;;9.00;99.90;;;;;;795817;179;26450;-80
2024/02/03 03:55:51;;;;;;;28.73;15.07;;;9.10;99.90;;;;;;795694;181;26424;-77
2024/02/03 03:58:17;;;;;;;31.00;16.73;;;9.10;99.90;;;;;;795520;181;26435;-80
2024/02/03 04:00:44;;;;;;;33.20;17.77;;;9.10;99.90;;;;;;795752;175;26422;-82
2024/02/03 04:03:10;;;;;;;31.47;15.60;;;9.10;99.90;;;;;;795939;174;26461;-78
2024/02/03 04:05:37;;;;;;;27.50;15.23;;;9.10;99.90;;;;;;795644;174;26420;-81
2024/02/03 04:08:06;;;;;;;28.97;14.37;;;9.10;99.90;;;;;;795245;174;26429;-79
2024/02/03 04:10:30;;;;;;;24.70;13.80;;;9.10;99.90;;;;;;791755;181;26414;-78
2024/02/03 04:12:57;;;;;;;22.37;13.97;;;9.20;99.90;;;;;;792069;181;26413;-79
2024/02/03 04:15:24;;;;;;;23.50;14.30;;;9.20;99.90;;;;;;790554;181;26448;-81
2024/02/03 04:17:50;;;;;;;22.83;13.23;;;9.20;99.90;;;;;;793215;181;26454;-80
2024/02/03 04:20:17;;;;;;;25.57;14.27;;;9.30;99.90;;;;;;784777;174;27050;-78
2024/02/03 04:22:43;;;;;;;22.47;13.03;;;9.30;99.90;;;;;;775233;184;26512;-78
2024/02/03 04:25:10;;;;;;;22.77;13.63;;;9.20;99.90;;;;;;775485;184;26509;-77
2024/02/03 04:27:37;;;;;;;19.23;12.80;;;9.30;99.90;;;;;;778161;181;26461;-77
2024/02/03 04:30:05;;;;;;;21.50;13.47;;;9.30;99.90;;;;;;771639;184;26562;-78
2024/02/03 04:32:32;;;;;;;26.93;16.17;;;9.30;99.90;;;;;;772714;185;26506;-78
2024/02/03 04:34:58;;;;;;;34.80;17.50;;;9.30;99.90;;;;;;770247;185;26551;-77
2024/02/03 04:37:24;;;;;;;30.50;17.30;;;9.40;99.90;;;;;;770852;185;27799;-77
2024/02/03 04:39:51;;;;;;;21.23;14.07;;;9.40;99.90;;;;;;767344;181;26707;-76
2024/02/03 04:42:18;;;;;;;21.07;13.20;;;9.30;99.90;;;;;;769219;185;26554;-78
2024/02/03 04:44:45;;;;;;;22.10;13.20;;;9.30;99.90;;;;;;769361;185;26581;-77
2024/02/03 04:47:12;;;;;;;23.67;13.37;;;9.30;99.90;;;;;;767668;185;26553;-77
2024/02/03 04:49:38;;;;;;;19.40;11.20;;;9.40;99.90;;;;;;770004;185;26589;-75
2024/02/03 04:52:05;;;;;;;18.73;10.57;;;9.40;99.90;;;;;;766171;186;26594;-77
2024/02/03 04:54:32;;;;;;;18.20;10.27;;;9.40;99.90;;;;;;769245;185;26573;-77
2024/02/03 04:56:58;;;;;;;18.57;10.73;;;9.40;99.90;;;;;;770144;185;26535;-77
2024/02/03 04:59:25;;;;;;;18.33;10.40;;;9.40;99.90;;;;;;770660;184;26524;-77
2024/02/03 05:01:51;;;;;;;14.43;9.53;;;9.40;99.90;;;;;;768767;184;27100;-77
2024/02/03 05:04:18;;;;;;;16.57;9.73;;;9.40;99.90;;;;;;769738;183;26569;-77
2024/02/03 05:06:45;;;;;;;14.53;10.10;;;9.40;99.90;;;;;;769864;185;27108;-76
2024/02/03 05:09:11;;;;;;;15.77;9.67;;;9.40;99.90;;;;;;770420;185;26606;-77
2024/02/03 05:11:38;;;;;;;17.23;10.10;;;9.40;99.90;;;;;;766638;185;27124;-77
2024/02/03 05:14:04;;;;;;;15.47;10.00;;;9.50;99.90;;;;;;768459;186;26556;-77
2024/02/03 05:16:31;;;;;;;13.73;9.23;;;9.50;99.90;;;;;;770680;185;26545;-77
2024/02/03 05:18:58;;;;;;;16.67;10.20;;;9.50;99.90;;;;;;769444;185;26580;-78
2024/02/03 05:21:24;;;;;;;15.53;9.40;;;9.50;99.90;;;;;;768921;185;26563;-77
2024/02/03 05:23:51;;;;;;;14.93;9.50;;;9.50;99.90;;;;;;770237;184;26516;-76
2024/02/03 05:26:17;;;;;;;15.27;9.23;;;9.50;99.90;;;;;;770224;185;26488;-79
2024/02/03 05:28:44;;;;;;;12.67;9.00;;;9.50;99.90;;;;;;773065;184;26571;-79
2024/02/03 05:31:11;;;;;;;14.27;9.20;;;9.50;99.90;;;;;;772462;185;27045;-77
2024/02/03 05:33:37;;;;;;;14.13;9.37;;;9.50;99.90;;;;;;770284;185;26511;-77
2024/02/03 05:36:04;;;;;;;16.40;9.73;;;9.50;99.90;;;;;;769556;186;26529;-79
2024/02/03 05:38:31;;;;;;;14.17;9.43;;;9.60;99.90;;;;;;770038;185;26545;-77
2024/02/03 05:40:57;;;;;;;15.87;10.40;;;9.60;99.90;;;;;;772393;184;26488;-77
2024/02/03 05:43:24;;;;;;;15.13;10.13;;;9.60;99.90;;;;;;767574;185;26582;-78
2024/02/03 05:45:50;;;;;;;16.40;10.40;;;9.60;99.90;;;;;;769561;185;26556;-77
2024/02/03 05:48:17;;;;;;;17.07;10.77;;;9.60;99.90;;;;;;770505;185;26514;-77
2024/02/03 05:50:44;;;;;;;15.23;9.90;;;9.60;99.90;;;;;;766960;185;26517;-77
2024/02/03 05:53:10;;;;;;;17.13;10.23;;;9.60;99.90;;;;;;767478;185;26601;-76
2024/02/03 05:55:37;;;;;;;17.37;10.47;;;9.70;99.90;;;;;;769789;185;26585;-77
2024/02/03 05:58:04;;;;;;;17.37;10.13;;;9.60;99.90;;;;;;768125;185;27195;-76
2024/02/03 06:00:30;;;;;;;17.10;10.30;;;9.70;99.90;;;;;;766148;185;26564;-78
2024/02/03 06:02:58;;;;;;;16.43;9.80;;;9.60;99.90;;;;;;768243;185;26528;-74
2024/02/03 06:05:23;;;;;;;15.30;9.97;;;9.70;99.90;;;;;;771025;185;26527;-74
2024/02/03 06:07:50;;;;;;;13.90;10.13;;;9.80;99.90;;;;;;771319;184;26803;-74
2024/02/03 06:10:17;;;;;;;16.17;10.07;;;9.80;99.90;;;;;;769693;184;26504;-72
2024/02/03 06:12:43;;;;;;;12.23;8.33;;;9.90;99.90;;;;;;769674;184;28250;-77
2024/02/03 06:15:10;;;;;;;13.87;9.70;;;9.80;99.90;;;;;;769699;185;26569;-77
2024/02/03 06:17:37;;;;;;;14.10;9.00;;;9.80;99.90;;;;;;772369;183;26866;-79
2024/02/03 06:20:04;;;;;;;13.03;9.13;;;9.80;99.90;;;;;;772005;185;26490;-77
2024/02/03 06:22:31;;;;;;;15.27;8.93;;;9.70;99.90;;;;;;772097;184;26507;-74
2024/02/03 06:24:57;;;;;;;13.33;8.83;;;9.70;99.90;;;;;;769083;186;26508;-75
2024/02/03 06:27:24;;;;;;;16.03;9.67;;;9.70;99.90;;;;;;770991;185;26564;-77
2024/02/03 06:29:50;;;;;;;13.90;9.53;;;9.70;99.90;;;;;;771479;184;26575;-76
2024/02/03 06:32:17;;;;;;;14.20;9.80;;;9.70;99.90;;;;;;769563;185;26517;-78
2024/02/03 06:34:44;;;;;;;15.07;9.70;;;9.70;99.90;;;;;;767315;184;27031;-78
2024/02/03 06:37:10;;;;;;;18.60;10.10;;;9.70;99.90;;;;;;773642;185;26484;-76
2024/02/03 06:39:37;;;;;;;15.37;10.23;;;9.70;99.90;;;;;;771630;184;27189;-78
2024/02/03 06:42:04;;;;;;;16.40;10.23;;;9.70;99.90;;;;;;771112;185;26593;-78
2024/02/03 06:44:30;;;;;;;15.80;9.40;;;9.80;99.90;;;;;;770874;185;27318;-78
2024/02/03 06:46:57;;;;;;;17.27;10.27;;;9.80;99.90;;;;;;768982;186;26512;-76
2024/02/03 06:49:23;;;;;;;16.83;10.77;;;9.80;99.90;;;;;;768580;185;26494;-78
2024/02/03 06:51:50;;;;;;;15.83;9.13;;;9.80;99.90;;;;;;773997;185;26574;-78
2024/02/03 06:54:17;;;;;;;15.03;9.93;;;9.80;99.90;;;;;;770277;185;26543;-77
2024/02/03 06:56:43;;;;;;;16.57;9.70;;;9.80;99.90;;;;;;766244;186;26564;-76
2024/02/03 06:59:10;;;;;;;15.87;9.80;;;9.80;99.90;;;;;;766300;183;26562;-75
2024/02/03 07:01:36;;;;;;;14.67;9.47;;;9.80;99.90;;;;;;766582;185;26524;-76
2024/02/03 07:04:04;;;;;;;16.53;10.07;;;9.90;99.90;;;;;;766606;186;26556;-77
2024/02/03 07:06:30;;;;;;;14.13;10.13;;;9.80;99.90;;;;;;768337;184;26497;-77
2024/02/03 07:08:56;;;;;;;19.00;10.20;;;9.90;99.90;;;;;;765691;185;27251;-77
2024/02/03 07:11:23;;;;;;;15.30;10.57;;;9.80;99.90;;;;;;764541;185;26561;-78
2024/02/03 07:13:50;;;;;;;15.87;10.83;;;9.80;99.90;;;;;;769838;186;26470;-77
2024/02/03 07:16:16;;;;;;;17.10;11.30;;;9.80;99.90;;;;;;772399;186;26505;-78
2024/02/03 07:18:43;;;;;;;19.87;11.50;;;9.80;99.90;;;;;;767232;186;26479;-78
2024/02/03 07:21:09;;;;;;;15.60;10.40;;;9.80;99.90;;;;;;763974;186;26593;-75
2024/02/03 07:23:36;;;;;;;18.73;11.60;;;9.70;99.90;;;;;;768040;186;27713;-76
2024/02/03 07:26:03;;;;;;;16.90;11.93;;;9.80;99.90;;;;;;767114;186;26471;-77
2024/02/03 07:28:29;;;;;;;16.37;11.33;;;9.70;99.90;;;;;;766971;182;26511;-76
2024/02/03 07:30:56;;;;;;;15.80;10.90;;;9.80;99.90;;;;;;768144;185;27038;-76
2024/02/03 07:33:22;;;;;;;17.33;10.93;;;9.80;99.90;;;;;;767717;185;26563;-76
2024/02/03 07:35:49;;;;;;;14.47;9.93;;;9.80;99.90;;;;;;769310;185;26490;-77
2024/02/03 07:38:16;;;;;;;16.93;10.90;;;9.90;99.90;;;;;;767756;185;26580;-77
2024/02/03 07:40:42;;;;;;;16.00;9.97;;;9.90;99.90;;;;;;766606;184;26582;-78
2024/02/03 07:43:09;;;;;;;17.23;10.67;;;9.90;99.90;;;;;;766771;185;27654;-77
2024/02/03 07:45:35;;;;;;;14.73;9.73;;;9.90;99.90;;;;;;765932;185;26553;-77
2024/02/03 07:48:02;;;;;;;15.40;9.20;;;10.00;99.90;;;;;;765748;186;27329;-77
2024/02/03 07:50:29;;;;;;;14.60;9.57;;;10.00;99.90;;;;;;765729;182;27197;-77
2024/02/03 07:52:56;;;;;;;13.93;8.43;;;10.00;99.90;;;;;;765772;185;26554;-76
2024/02/03 07:55:22;;;;;;;12.93;7.93;;;10.00;99.90;;;;;;768412;184;26487;-77
2024/02/03 07:57:48;;;;;;;12.33;8.40;;;10.10;99.90;;;;;;767199;185;27056;-76
2024/02/03 08:00:15;;;;;;;12.27;8.70;;;10.10;99.90;;;;;;770125;185;26515;-77
2024/02/03 08:02:42;;;;;;;12.37;8.00;;;10.10;99.90;;;;;;767373;185;26542;-77
2024/02/03 08:05:08;;;;;;;11.77;8.53;;;10.20;99.90;;;;;;770048;185;27011;-77
2024/02/03 08:07:36;;;;;;;11.67;7.73;;;10.20;99.90;;;;;;772383;184;26518;-75
2024/02/03 08:10:02;;;;;;;12.33;8.90;;;10.20;99.90;;;;;;770231;184;26564;-77
2024/02/03 08:12:28;;;;;;;10.30;7.27;;;10.30;99.90;;;;;;767523;187;27089;-78
2024/02/03 08:14:55;;;;;;;14.03;7.87;;;10.30;99.90;;;;;;767602;187;26575;-77
2024/02/03 08:17:21;;;;;;;10.10;7.60;;;10.30;99.90;;;;;;767476;187;27145;-78
2024/02/03 08:19:48;;;;;;;12.47;8.53;;;10.40;99.90;;;;;;768894;185;26525;-76
2024/02/03 08:22:15;;;;;;;14.53;8.47;;;10.40;99.90;;;;;;768479;185;26570;-76
2024/02/03 08:24:41;;;;;;;13.97;8.20;;;10.40;99.90;;;;;;771798;181;27043;-76
2024/02/03 08:27:08;;;;;;;10.33;7.47;;;10.50;99.90;;;;;;769958;185;26514;-78
2024/02/03 08:29:34;;;;;;;12.77;8.03;;;10.50;99.90;;;;;;769841;185;27187;-77
2024/02/03 08:32:01;;;;;;;9.00;7.30;;;10.60;99.90;;;;;;769201;185;26532;-76
2024/02/03 08:34:28;;;;;;;13.63;6.50;;;10.60;99.90;;;;;;767297;183;26550;-77
2024/02/03 08:36:54;;;;;;;10.10;7.70;;;10.70;99.90;;;;;;769082;185;26523;-76
2024/02/03 08:39:21;;;;;;;7.87;5.80;;;10.70;99.90;;;;;;769369;185;27160;-76
2024/02/03 08:41:48;;;;;;;14.03;7.43;;;10.70;99.90;;;;;;769702;183;26733;-76
2024/02/03 08:44:14;;;;;;;11.27;7.27;;;10.80;99.90;;;;;;769077;186;27119;-78
2024/02/03 08:46:41;;;;;;;8.97;6.33;;;10.80;99.90;;;;;;768842;187;26581;-78
2024/02/03 08:49:08;;;;;;;9.67;6.17;;;10.80;99.90;;;;;;771677;185;26556;-78
2024/02/03 08:51:34;;;;;;;8.43;6.60;;;10.80;99.90;;;;;;773075;185;27176;-77
2024/02/03 08:54:01;;;;;;;9.93;6.80;;;10.80;99.90;;;;;;772378;185;26514;-78
2024/02/03 08:56:27;;;;;;;9.27;6.40;;;10.90;99.90;;;;;;771248;186;27047;-78
2024/02/03 08:58:54;;;;;;;11.03;6.63;;;10.90;99.90;;;;;;770952;186;26505;-78
2024/02/03 09:01:20;;;;;;;15.33;6.60;;;10.90;99.90;;;;;;771060;184;26541;-79
2024/02/03 09:03:48;;;;;;;9.43;6.87;;;10.90;99.90;;;;;;771115;186;26635;-77
2024/02/03 09:06:14;;;;;;;9.70;6.50;;;10.90;99.90;;;;;;771047;185;26489;-77
2024/02/03 09:08:40;;;;;;;9.67;7.10;;;10.80;99.90;;;;;;770926;184;26547;-77
2024/02/03 09:11:07;;;;;;;13.33;7.10;;;10.90;99.90;;;;;;773753;185;27090;-77
2024/02/03 09:13:33;;;;;;;12.67;7.27;;;10.90;99.90;;;;;;775385;185;26477;-78
2024/02/03 09:16:00;;;;;;;12.80;7.70;;;10.90;99.90;;;;;;776341;185;26541;-79
2024/02/03 09:18:27;;;;;;;10.40;7.30;;;11.00;99.90;;;;;;773918;182;27039;-76
2024/02/03 09:20:53;;;;;;;12.30;7.43;;;11.10;99.90;;;;;;769494;183;26509;-77
2024/02/03 09:23:20;;;;;;;12.63;7.10;;;11.10;99.90;;;;;;770204;185;26767;-78
2024/02/03 09:25:48;;;;;;;10.43;6.83;;;11.10;99.90;;;;;;769017;185;26560;-78
2024/02/03 09:28:13;;;;;;;11.00;8.03;;;11.00;99.90;;;;;;765204;187;26670;-78
2024/02/03 09:30:40;;;;;;;11.47;8.03;;;11.10;99.90;;;;;;765885;188;26520;-77
2024/02/03 09:33:07;;;;;;;14.17;8.73;;;11.10;99.90;;;;;;765874;188;26506;-78
2024/02/03 09:35:33;;;;;;;22.73;11.87;;;11.10;99.90;;;;;;765987;188;26525;-77
2024/02/03 09:38:00;;;;;;;19.00;11.90;;;11.10;99.90;;;;;;765481;185;26502;-77
2024/02/03 09:40:26;;;;;;;25.63;14.70;;;11.20;99.90;;;;;;769930;185;26507;-78
2024/02/03 09:42:53;;;;;;;16.20;9.70;;;11.30;99.90;;;;;;775133;185;26601;-77
2024/02/03 09:45:21;;;;;;;14.73;8.90;;;11.30;99.90;;;;;;775712;181;26519;-79
2024/02/03 09:47:47;;;;;;;15.47;9.03;;;11.40;99.90;;;;;;776210;185;26500;-77
2024/02/03 09:50:14;;;;;;;13.83;9.73;;;11.30;99.90;;;;;;777604;183;26547;-77
2024/02/03 09:52:42;;;;;;;13.90;9.30;;;11.40;99.90;;;;;;778723;183;26488;-78
2024/02/03 09:55:08;;;;;;;11.90;8.43;;;11.40;99.90;;;;;;775595;184;26492;-77
2024/02/03 09:57:34;;;;;;;10.83;7.37;;;11.40;99.90;;;;;;775106;185;26552;-77
2024/02/03 10:00:01;;;;;;;16.70;8.63;;;11.50;99.90;;;;;;771295;185;26536;-77
2024/02/03 10:02:27;;;;;;;10.40;7.33;;;11.30;99.90;;;;;;776901;184;26467;-77
2024/02/03 10:04:54;;;;;;;12.57;8.80;;;11.20;99.90;;;;;;773418;185;26548;-77
2024/02/03 10:07:21;;;;;;;17.20;9.30;;;11.10;99.90;;;;;;773244;185;26473;-78
2024/02/03 10:09:47;;;;;;;14.83;9.53;;;11.00;99.90;;;;;;776569;181;26515;-79
2024/02/03 10:12:20;;;;;;;12.27;9.10;;;11.00;99.90;;;;;;775374;185;26525;-76
2024/02/03 10:14:46;;;;;;;15.37;10.10;;;10.90;99.90;;;;;;772529;183;26508;-78
2024/02/03 10:17:13;;;;;;;18.27;11.50;;;10.90;99.90;;;;;;772499;185;26632;-77
2024/02/03 10:19:39;;;;;;;18.77;10.60;;;10.80;99.90;;;;;;777679;172;26510;-79
2024/02/03 10:22:06;;;;;;;14.90;9.40;;;10.80;99.90;;;;;;816168;174;26416;-77
2024/02/03 10:24:33;;;;;;;14.67;8.97;;;10.80;99.90;;;;;;811639;175;26410;-78
2024/02/03 10:27:01;;;;;;;21.83;10.97;;;10.80;99.90;;;;;;811504;175;26410;-79
2024/02/03 10:29:28;;;;;;;19.03;10.60;;;10.80;99.90;;;;;;810143;175;26354;-78
2024/02/03 10:31:54;;;;;;;19.23;11.13;;;10.70;99.90;;;;;;815819;174;26367;-78
2024/02/03 10:34:21;;;;;;;21.23;11.60;;;10.80;99.90;;;;;;815941;173;26424;-79
2024/02/03 10:36:48;;;;;;;28.70;15.93;;;10.80;99.90;;;;;;807310;174;26425;-77
2024/02/03 10:39:14;;;;;;;27.63;15.77;;;10.80;99.90;;;;;;814818;174;26390;-79
2024/02/03 10:41:42;;;;;;;32.83;18.40;;;10.90;99.90;;;;;;813558;173;26424;-80
2024/02/03 10:44:07;;;;;;;46.13;25.17;;;11.00;99.90;;;;;;811818;174;26417;-79
2024/02/03 10:46:38;;;;;;;32.00;17.00;;;11.10;99.90;;;;;;809883;174;26480;-80
2024/02/03 10:49:04;;;;;;;23.40;13.73;;;11.20;99.90;;;;;;811167;174;26368;-79
2024/02/03 10:51:31;;;;;;;17.00;10.80;;;11.10;99.90;;;;;;811055;174;27027;-78
2024/02/03 10:53:58;;;;;;;20.10;11.40;;;11.10;99.90;;;;;;814936;174;26354;-79
2024/02/03 10:56:28;;;;;;;14.50;9.20;;;11.20;99.90;;;;;;828050;174;26345;-79
2024/02/03 10:58:52;;;;;;;13.70;8.03;;;11.30;99.90;;;;;;828364;173;26359;-79
2024/02/03 11:01:21;;;;;;;12.20;8.07;;;11.20;99.90;;;;;;829402;171;26355;-78
2024/02/03 11:03:48;;;;;;;11.43;8.87;;;11.10;99.90;;;;;;812302;172;26948;-78
2024/02/03 11:06:29;;;;;;;13.43;9.20;;;11.10;99.90;;;;;;811600;175;26382;-78
2024/02/03 11:09:08;;;;;;;17.10;9.57;;;11.10;99.90;;;;;;815752;174;26420;-78
2024/02/03 11:11:34;;;;;;;22.67;12.30;;;11.10;99.90;;;;;;818445;173;26347;-79
2024/02/03 11:14:01;;;;;;;24.37;12.53;;;11.00;99.90;;;;;;816144;173;26412;-80
2024/02/03 11:16:35;;;;;;;22.80;13.23;;;11.00;99.90;;;;;;820387;174;26376;-77
2024/02/03 11:19:02;;;;;;;25.40;13.37;;;11.10;99.90;;;;;;807996;174;26397;-80
2024/02/03 11:21:28;;;;;;;23.03;13.27;;;11.10;99.90;;;;;;810202;176;26342;-78
2024/02/03 11:23:55;;;;;;;21.00;12.37;;;11.20;99.90;;;;;;814165;173;26343;-77
2024/02/03 11:26:21;;;;;;;17.80;9.90;;;11.20;99.90;;;;;;820010;173;28038;-79
2024/02/03 11:28:48;;;;;;;18.43;10.93;;;11.20;99.90;;;;;;806899;174;26420;-79
2024/02/03 11:31:15;;;;;;;19.00;10.23;;;11.30;99.90;;;;;;810920;174;26379;-79
2024/02/03 11:33:44;;;;;;;19.20;12.43;;;11.40;99.90;;;;;;819662;174;26370;-80
2024/02/03 11:36:10;;;;;;;13.07;9.50;;;11.60;99.90;;;;;;815393;174;26421;-78
2024/02/03 11:38:42;;;;;;;13.67;9.97;;;11.70;99.90;;;;;;809918;174;26499;-79
2024/02/03 11:41:09;;;;;;;27.97;15.43;;;11.80;99.90;;;;;;818218;174;26416;-79
2024/02/03 11:43:36;;;;;;;48.83;24.70;;;12.00;99.90;;;;;;805785;174;26548;-77
2024/02/03 11:46:02;;;;;;;75.10;30.90;;;12.20;99.90;;;;;;814464;174;26428;-80
2024/02/03 11:48:28;;;;;;;92.30;37.93;;;12.40;99.90;;;;;;811462;174;26392;-79
2024/02/03 11:50:55;;;;;;;90.00;41.67;;;12.30;99.90;;;;;;818420;174;26360;-79
2024/02/03 11:53:23;;;;;;;42.87;21.97;;;12.50;99.80;;;;;;815493;173;26489;-79
2024/02/03 11:55:49;;;;;;;27.87;14.43;;;12.30;99.80;;;;;;813135;176;26342;-77
2024/02/03 11:58:16;;;;;;;11.07;7.10;;;12.60;99.50;;;;;;811811;174;26349;-79
2024/02/03 12:00:42;;;;;;;12.17;7.97;;;12.70;98.70;;;;;;814419;174;26515;-78
2024/02/03 12:03:09;;;;;;;33.90;15.60;;;13.00;98.30;;;;;;811595;174;26401;-80
2024/02/03 12:05:36;;;;;;;23.13;12.53;;;12.90;97.90;;;;;;809688;174;26462;-76
2024/02/03 12:08:02;;;;;;;11.37;7.93;;;12.70;98.70;;;;;;818818;173;26340;-77
2024/02/03 12:10:29;;;;;;;24.50;12.70;;;12.70;98.50;;;;;;811135;174;26416;-79
2024/02/03 12:13:00;;;;;;;91.57;43.60;;;12.70;98.70;;;;;;809026;173;26346;-78
2024/02/03 12:15:27;;;;;;;108.90;46.70;;;12.70;98.80;;;;;;814683;172;26458;-80
2024/02/03 12:17:53;;;;;;;43.80;22.83;;;12.60;99.40;;;;;;816495;173;26344;-79
2024/02/03 12:20:22;;;;;;;21.67;11.93;;;12.60;98.60;;;;;;810722;176;26426;-79
2024/02/03 12:22:47;;;;;;;22.67;13.10;;;12.60;98.70;;;;;;809080;176;26409;-79
2024/02/03 12:25:14;;;;;;;13.37;7.30;;;12.50;99.10;;;;;;816903;172;26358;-81
2024/02/03 12:27:40;;;;;;;33.77;15.87;;;12.40;99.30;;;;;;812371;172;26344;-78
2024/02/03 12:30:15;;;;;;;58.47;24.83;;;12.40;99.00;;;;;;820256;172;26485;-78
2024/02/03 12:32:41;;;;;;;63.03;28.57;;;12.30;99.00;;;;;;824602;173;26348;-80